Time;durP1;ratioP1;P1;durP2;ratioP2;P2;SDS_P1;SDS_P2;PMS_P1;PMS_P2;Temp;Humidity;BMP_temperature;BMP_pressure;BME280_temperature;BME280_humidity;BME280_pressure;Samples;Min_cycle;Max_cycle;Signal;HPM_P1;HPM_P2
2022/01/05 00:01:42;;;;;;;11.27;6.90;;;;;;;;;;6291043;28;20045;-63
2022/01/05 00:04:43;;;;;;;14.45;6.97;;;;;;;;;;6279056;28;20040;-61
2022/01/05 00:07:44;;;;;;;12.30;6.10;;;;;;;;;;6287642;28;20045;-63
2022/01/05 00:10:45;;;;;;;11.45;5.85;;;;;;;;;;6286765;28;20045;-60
2022/01/05 00:13:46;;;;;;;11.25;5.55;;;;;;;;;;6277643;28;20044;-64
2022/01/05 00:16:46;;;;;;;9.70;5.30;;;;;;;;;;6276154;28;20093;-63
2022/01/05 00:19:47;;;;;;;12.38;5.60;;;;;;;;;;6278009;28;20056;-60
2022/01/05 00:22:48;;;;;;;10.85;5.78;;;;;;;;;;6278896;28;20143;-63
2022/01/05 00:25:49;;;;;;;10.48;5.65;;;;;;;;;;6277097;28;20057;-64
2022/01/05 00:28:50;;;;;;;10.37;5.90;;;;;;;;;;6276645;28;20114;-62
2022/01/05 00:31:51;;;;;;;11.80;6.70;;;;;;;;;;6272393;28;20134;-62
2022/01/05 00:34:52;;;;;;;11.73;6.18;;;;;;;;;;6285190;28;21002;-63
2022/01/05 00:37:53;;;;;;;11.70;6.60;;;;;;;;;;6277837;28;20056;-62
2022/01/05 00:40:54;;;;;;;10.52;6.38;;;;;;;;;;6277406;28;20049;-64
2022/01/05 00:43:55;;;;;;;9.32;5.70;;;;;;;;;;6266630;28;20484;-61
2022/01/05 00:46:55;;;;;;;11.13;5.97;;;;;;;;;;6265546;28;20051;-61
2022/01/05 00:49:56;;;;;;;10.30;5.50;;;;;;;;;;6277142;28;20051;-62
2022/01/05 00:53:00;;;;;;;10.30;5.43;;;;;;;;;;6278319;28;20575;-61
2022/01/05 00:56:01;;;;;;;13.00;6.25;;;;;;;;;;6273518;28;20693;-61
2022/01/05 00:59:01;;;;;;;9.77;5.45;;;;;;;;;;6275252;28;20165;-60
2022/01/05 01:02:02;;;;;;;9.43;5.40;;;;;;;;;;6276106;28;20052;-63
2022/01/05 01:05:03;;;;;;;9.75;5.60;;;;;;;;;;6279630;28;20047;-63
2022/01/05 01:08:04;;;;;;;9.85;5.65;;;;;;;;;;6271343;28;20087;-61
2022/01/05 01:11:05;;;;;;;11.82;5.72;;;;;;;;;;6259645;28;20053;-60
2022/01/05 01:14:06;;;;;;;9.63;5.13;;;;;;;;;;6273425;28;20059;-63
2022/01/05 01:17:06;;;;;;;11.50;5.40;;;;;;;;;;6278165;28;20045;-61
2022/01/05 01:20:08;;;;;;;10.00;5.45;;;;;;;;;;6280337;28;20129;-63
2022/01/05 01:23:09;;;;;;;10.63;5.70;;;;;;;;;;6283097;28;20045;-60
2022/01/05 01:26:10;;;;;;;9.88;5.60;;;;;;;;;;6283428;28;20037;-62
2022/01/05 01:29:10;;;;;;;10.50;6.15;;;;;;;;;;6283341;28;20199;-61
2022/01/05 01:32:11;;;;;;;12.05;5.82;;;;;;;;;;6281323;28;20059;-61
2022/01/05 01:35:11;;;;;;;10.68;5.93;;;;;;;;;;6292000;28;20136;-61
2022/01/05 01:38:12;;;;;;;10.95;6.63;;;;;;;;;;6290532;28;20044;-63
2022/01/05 01:41:13;;;;;;;12.02;6.05;;;;;;;;;;6284886;28;20048;-63
2022/01/05 01:44:16;;;;;;;11.05;5.65;;;;;;;;;;6283731;28;20056;-61
2022/01/05 01:47:18;;;;;;;9.20;4.80;;;;;;;;;;6277406;28;20079;-61
2022/01/05 01:50:19;;;;;;;8.98;5.40;;;;;;;;;;6284196;28;20132;-62
2022/01/05 01:53:19;;;;;;;9.02;5.03;;;;;;;;;;6284994;28;20502;-60
2022/01/05 01:56:23;;;;;;;11.32;5.72;;;;;;;;;;6280503;28;20060;-61
2022/01/05 01:59:23;;;;;;;13.63;6.75;;;;;;;;;;6280664;28;20186;-62
2022/01/05 02:02:24;;;;;;;11.48;6.05;;;;;;;;;;6278395;28;20065;-61
2022/01/05 02:05:25;;;;;;;10.05;6.40;;;;;;;;;;6283287;28;20037;-60
2022/01/05 02:08:27;;;;;;;11.23;5.60;;;;;;;;;;6277797;28;20091;-62
2022/01/05 02:11:27;;;;;;;9.38;5.50;;;;;;;;;;6282932;28;20036;-63
2022/01/05 02:14:28;;;;;;;9.63;5.72;;;;;;;;;;6284474;28;20055;-60
2022/01/05 02:17:55;;;;;;;9.00;5.55;;;;;;;;;;6278531;28;20044;-61
2022/01/05 02:21:01;;;;;;;10.80;5.60;;;;;;;;;;6281797;28;20076;-63
2022/01/05 02:24:04;;;;;;;10.70;5.53;;;;;;;;;;6281914;28;20053;-62
2022/01/05 02:27:05;;;;;;;25.30;15.27;;;;;;;;;;6279072;28;20079;-62
2022/01/05 02:30:06;;;;;;;15.05;7.25;;;;;;;;;;6279210;28;20127;-63
2022/01/05 02:33:07;;;;;;;14.70;7.03;;;;;;;;;;6280273;28;20040;-63
2022/01/05 02:36:10;;;;;;;10.82;6.10;;;;;;;;;;6277858;28;20045;-62
2022/01/05 02:39:11;;;;;;;13.25;7.15;;;;;;;;;;6277024;28;20049;-62
2022/01/05 02:42:24;;;;;;;13.75;7.43;;;;;;;;;;6279382;28;20052;-63
2022/01/05 02:45:25;;;;;;;16.35;9.05;;;;;;;;;;6281861;28;20126;-61
2022/01/05 02:48:26;;;;;;;14.75;7.65;;;;;;;;;;6281616;28;20079;-61
2022/01/05 02:51:27;;;;;;;15.07;8.30;;;;;;;;;;6276611;28;20455;-61
2022/01/05 02:54:27;;;;;;;14.00;7.68;;;;;;;;;;6278240;28;20040;-61
2022/01/05 02:57:28;;;;;;;14.60;7.97;;;;;;;;;;6280184;28;20036;-61
2022/01/05 03:00:29;;;;;;;14.02;8.35;;;;;;;;;;6279358;28;20051;-63
2022/01/05 03:03:30;;;;;;;16.63;9.02;;;;;;;;;;6281077;28;20076;-62
2022/01/05 03:06:31;;;;;;;16.42;9.43;;;;;;;;;;6278170;28;20146;-63
2022/01/05 03:09:31;;;;;;;18.67;10.98;;;;;;;;;;6279128;28;20088;-62
2022/01/05 03:12:32;;;;;;;15.75;9.23;;;;;;;;;;6281249;28;20058;-62
2022/01/05 03:15:35;;;;;;;13.35;8.20;;;;;;;;;;6277402;28;20872;-61
2022/01/05 03:18:36;;;;;;;16.70;9.98;;;;;;;;;;6280341;28;20076;-62
2022/01/05 03:21:36;;;;;;;23.63;14.25;;;;;;;;;;6284481;28;20045;-62
2022/01/05 03:24:38;;;;;;;38.92;20.50;;;;;;;;;;6279206;28;20064;-62
2022/01/05 03:27:39;;;;;;;26.90;14.55;;;;;;;;;;6278167;28;20066;-62
2022/01/05 03:30:40;;;;;;;21.83;11.82;;;;;;;;;;6280600;28;20105;-60
2022/01/05 03:33:40;;;;;;;21.30;11.18;;;;;;;;;;6281276;28;20075;-61
2022/01/05 03:36:41;;;;;;;16.10;8.75;;;;;;;;;;6279293;28;20595;-62
2022/01/05 03:39:42;;;;;;;17.40;9.23;;;;;;;;;;6256307;28;20056;-62
2022/01/05 03:42:42;;;;;;;16.13;8.95;;;;;;;;;;6278143;28;20048;-63
2022/01/05 03:45:43;;;;;;;16.33;8.30;;;;;;;;;;6280895;28;20045;-64
2022/01/05 03:48:44;;;;;;;14.73;8.48;;;;;;;;;;6277052;28;20048;-63
2022/01/05 03:51:45;;;;;;;15.80;9.50;;;;;;;;;;6277158;28;20056;-61
2022/01/05 03:54:46;;;;;;;16.52;8.52;;;;;;;;;;6282143;28;20084;-63
2022/01/05 03:57:47;;;;;;;15.32;9.15;;;;;;;;;;6277588;28;20650;-64
2022/01/05 04:00:50;;;;;;;16.88;9.68;;;;;;;;;;6280813;28;20040;-61
2022/01/05 04:03:51;;;;;;;15.50;8.90;;;;;;;;;;6272649;28;20053;-61
2022/01/05 04:06:52;;;;;;;18.35;9.57;;;;;;;;;;6288264;28;20172;-61
2022/01/05 04:09:52;;;;;;;16.20;9.02;;;;;;;;;;6278550;28;20101;-63
2022/01/05 04:12:53;;;;;;;16.25;8.68;;;;;;;;;;6276281;28;20055;-62
2022/01/05 04:15:54;;;;;;;13.32;8.88;;;;;;;;;;6279229;28;20040;-62
2022/01/05 04:18:54;;;;;;;16.05;8.45;;;;;;;;;;6265541;28;20053;-63
2022/01/05 04:21:55;;;;;;;17.02;9.02;;;;;;;;;;6278753;28;20044;-63
2022/01/05 04:24:55;;;;;;;20.17;10.45;;;;;;;;;;6275225;28;20086;-62
2022/01/05 04:27:56;;;;;;;26.23;15.65;;;;;;;;;;6279489;28;20078;-63
2022/01/05 04:30:57;;;;;;;23.48;15.30;;;;;;;;;;6280622;28;20499;-61
2022/01/05 04:33:58;;;;;;;20.73;11.43;;;;;;;;;;6275168;28;20140;-60
2022/01/05 04:36:58;;;;;;;23.40;12.82;;;;;;;;;;6278158;28;20565;-62
2022/01/05 04:40:00;;;;;;;21.80;11.98;;;;;;;;;;6279924;28;20044;-63
2022/01/05 04:43:00;;;;;;;22.42;11.07;;;;;;;;;;6290905;28;20094;-60
2022/01/05 04:46:01;;;;;;;19.52;9.93;;;;;;;;;;6286994;28;20494;-61
2022/01/05 04:49:02;;;;;;;18.05;9.23;;;;;;;;;;6288782;28;20040;-62
2022/01/05 04:52:03;;;;;;;17.92;8.88;;;;;;;;;;6280227;28;20857;-62
2022/01/05 04:55:04;;;;;;;14.65;7.55;;;;;;;;;;6287819;28;20049;-61
2022/01/05 04:58:05;;;;;;;15.65;8.48;;;;;;;;;;6287301;28;20106;-63
2022/01/05 05:01:06;;;;;;;16.08;8.57;;;;;;;;;;6280102;28;20503;-63
2022/01/05 05:04:06;;;;;;;16.65;8.25;;;;;;;;;;6285378;28;20048;-62
2022/01/05 05:07:07;;;;;;;17.95;9.23;;;;;;;;;;6292474;28;20391;-62
2022/01/05 05:10:08;;;;;;;16.48;8.43;;;;;;;;;;6284747;28;20055;-61
2022/01/05 05:13:09;;;;;;;26.67;11.50;;;;;;;;;;6292281;28;20040;-61
2022/01/05 05:16:10;;;;;;;25.30;14.02;;;;;;;;;;6287365;28;20188;-64
2022/01/05 05:19:11;;;;;;;32.15;17.60;;;;;;;;;;6283862;28;20128;-62
2022/01/05 05:22:11;;;;;;;41.30;21.95;;;;;;;;;;6270496;28;20060;-62
2022/01/05 05:25:12;;;;;;;37.45;20.50;;;;;;;;;;6273788;28;20064;-60
2022/01/05 05:28:13;;;;;;;57.88;31.08;;;;;;;;;;6269685;28;20162;-61
2022/01/05 05:31:14;;;;;;;46.20;28.50;;;;;;;;;;6268876;28;20041;-61
2022/01/05 05:34:15;;;;;;;27.60;16.15;;;;;;;;;;6273157;28;20154;-62
2022/01/05 05:37:16;;;;;;;26.92;16.23;;;;;;;;;;6270831;28;20056;-61
2022/01/05 05:40:17;;;;;;;25.87;15.27;;;;;;;;;;6269443;28;20440;-60
2022/01/05 05:43:18;;;;;;;28.85;17.23;;;;;;;;;;6275126;28;20304;-61
2022/01/05 05:46:19;;;;;;;63.25;36.78;;;;;;;;;;6272258;28;20040;-60
2022/01/05 05:49:20;;;;;;;66.37;40.47;;;;;;;;;;6273014;28;20037;-61
2022/01/05 05:52:21;;;;;;;78.65;46.08;;;;;;;;;;6272193;28;20553;-60
2022/01/05 05:55:21;;;;;;;32.10;17.60;;;;;;;;;;6273742;28;20423;-61
2022/01/05 05:58:22;;;;;;;28.42;16.60;;;;;;;;;;6270573;28;20194;-61
2022/01/05 06:01:24;;;;;;;30.30;16.38;;;;;;;;;;6272368;28;20048;-61
2022/01/05 06:04:24;;;;;;;32.23;17.07;;;;;;;;;;6277068;28;20072;-62
2022/01/05 06:07:25;;;;;;;29.42;16.48;;;;;;;;;;6266635;28;20072;-62
2022/01/05 06:10:26;;;;;;;31.13;15.93;;;;;;;;;;6267479;28;20102;-64
2022/01/05 06:13:27;;;;;;;26.90;14.63;;;;;;;;;;6270050;28;20547;-61
2022/01/05 06:16:28;;;;;;;44.17;24.55;;;;;;;;;;6266440;28;20051;-61
2022/01/05 06:19:28;;;;;;;30.55;15.77;;;;;;;;;;6268002;28;20052;-62
2022/01/05 06:22:29;;;;;;;41.58;23.67;;;;;;;;;;6265092;28;20053;-62
2022/01/05 06:25:30;;;;;;;33.90;17.38;;;;;;;;;;6270176;28;20064;-60
2022/01/05 06:28:30;;;;;;;31.20;18.05;;;;;;;;;;6267242;28;20082;-62
2022/01/05 06:31:31;;;;;;;29.13;16.80;;;;;;;;;;6265488;28;21807;-60
2022/01/05 06:34:32;;;;;;;31.63;16.73;;;;;;;;;;6268976;28;20048;-59
2022/01/05 06:37:33;;;;;;;30.23;15.95;;;;;;;;;;6269925;28;20056;-61
2022/01/05 06:40:33;;;;;;;28.60;15.70;;;;;;;;;;6268732;28;20550;-63
2022/01/05 06:43:34;;;;;;;32.17;18.23;;;;;;;;;;6267265;28;20053;-59
2022/01/05 06:46:35;;;;;;;39.80;20.90;;;;;;;;;;6268554;28;20052;-59
2022/01/05 06:49:36;;;;;;;28.83;17.27;;;;;;;;;;6266832;28;20057;-62
2022/01/05 06:52:38;;;;;;;32.95;19.08;;;;;;;;;;6266613;28;20692;-63
2022/01/05 06:55:39;;;;;;;35.38;20.10;;;;;;;;;;6265517;28;21092;-61
2022/01/05 06:58:40;;;;;;;53.83;27.50;;;;;;;;;;6265061;28;20132;-61
2022/01/05 07:01:40;;;;;;;62.10;31.45;;;;;;;;;;6265111;28;20064;-60
2022/01/05 07:04:41;;;;;;;65.00;32.67;;;;;;;;;;6271794;28;20739;-61
2022/01/05 07:07:42;;;;;;;155.45;75.78;;;;;;;;;;6268087;28;20106;-62
2022/01/05 07:10:42;;;;;;;58.25;29.48;;;;;;;;;;6263658;28;20041;-60
2022/01/05 07:13:43;;;;;;;54.22;28.30;;;;;;;;;;6269076;28;20044;-62
2022/01/05 07:16:44;;;;;;;62.42;32.92;;;;;;;;;;6267625;28;20045;-60
2022/01/05 07:19:45;;;;;;;74.13;38.60;;;;;;;;;;6266850;28;20098;-62
2022/01/05 07:22:45;;;;;;;52.42;28.85;;;;;;;;;;6265412;28;20041;-60
2022/01/05 07:25:46;;;;;;;51.03;28.40;;;;;;;;;;6268344;28;20057;-62
2022/01/05 07:28:47;;;;;;;51.92;28.65;;;;;;;;;;6261319;28;20063;-60
2022/01/05 07:31:49;;;;;;;57.72;27.83;;;;;;;;;;6266169;28;20418;-60
2022/01/05 07:34:50;;;;;;;53.42;29.33;;;;;;;;;;6268011;28;20053;-59
2022/01/05 07:37:50;;;;;;;55.80;29.52;;;;;;;;;;6265660;28;20143;-60
2022/01/05 07:40:51;;;;;;;34.58;20.58;;;;;;;;;;6267940;28;20709;-62
2022/01/05 07:43:52;;;;;;;32.10;17.67;;;;;;;;;;6250685;28;20061;-62
2022/01/05 07:46:52;;;;;;;29.92;15.80;;;;;;;;;;6272546;28;20078;-62
2022/01/05 07:49:53;;;;;;;33.15;18.42;;;;;;;;;;6267941;28;20073;-61
2022/01/05 07:52:54;;;;;;;32.40;18.85;;;;;;;;;;6269143;28;20053;-65
2022/01/05 07:55:55;;;;;;;30.38;17.73;;;;;;;;;;6271400;28;20056;-62
2022/01/05 07:58:56;;;;;;;31.33;17.77;;;;;;;;;;6269063;28;20503;-63
2022/01/05 08:01:57;;;;;;;34.40;18.73;;;;;;;;;;6266121;28;20128;-64
2022/01/05 08:04:58;;;;;;;30.27;17.75;;;;;;;;;;6268517;28;20055;-58
2022/01/05 08:07:59;;;;;;;31.30;17.10;;;;;;;;;;6268415;28;20052;-60
2022/01/05 08:11:00;;;;;;;30.33;16.08;;;;;;;;;;6271158;28;20045;-60
2022/01/05 08:14:00;;;;;;;29.15;16.75;;;;;;;;;;6270490;28;20048;-59
2022/01/05 08:17:01;;;;;;;35.75;19.77;;;;;;;;;;6269664;28;20048;-62
2022/01/05 08:20:03;;;;;;;34.40;19.30;;;;;;;;;;6266492;28;20063;-59
2022/01/05 08:23:05;;;;;;;41.10;23.15;;;;;;;;;;6265281;28;20175;-59
2022/01/05 08:26:05;;;;;;;46.73;23.30;;;;;;;;;;6265614;28;20147;-65
2022/01/05 08:29:07;;;;;;;32.63;16.33;;;;;;;;;;6262137;28;20051;-60
2022/01/05 08:32:07;;;;;;;32.58;17.75;;;;;;;;;;6264349;28;20053;-61
2022/01/05 08:35:10;;;;;;;33.42;17.58;;;;;;;;;;6267136;28;20051;-64
2022/01/05 08:38:11;;;;;;;;;;;;;;;;;;6266800;28;20064;-64
2022/01/05 08:41:12;;;;;;;39.00;17.33;;;;;;;;;;6267975;28;19967;-59
2022/01/05 08:44:12;;;;;;;38.03;20.25;;;;;;;;;;6272279;28;20508;-63
2022/01/05 08:47:13;;;;;;;38.67;22.65;;;;;;;;;;6268413;28;20479;-60
2022/01/05 08:50:22;;;;;;;45.25;24.00;;;;;;;;;;6267834;28;20490;-61
2022/01/05 08:53:23;;;;;;;45.03;23.67;;;;;;;;;;6268328;28;20613;-60
2022/01/05 08:56:25;;;;;;;41.58;22.92;;;;;;;;;;6267287;28;20044;-64
2022/01/05 08:59:26;;;;;;;38.47;20.43;;;;;;;;;;6266358;28;20072;-60
2022/01/05 09:02:28;;;;;;;35.75;18.48;;;;;;;;;;6267669;28;20316;-59
2022/01/05 09:05:30;;;;;;;34.97;19.92;;;;;;;;;;6271300;28;20048;-59
2022/01/05 09:08:30;;;;;;;32.33;17.80;;;;;;;;;;6262662;28;20087;-60
2022/01/05 09:11:31;;;;;;;38.30;19.10;;;;;;;;;;6261740;28;20056;-64
2022/01/05 09:14:32;;;;;;;37.17;19.05;;;;;;;;;;6263294;28;20049;-63
2022/01/05 09:17:32;;;;;;;36.38;18.60;;;;;;;;;;6261440;28;20143;-65
2022/01/05 09:20:33;;;;;;;31.00;15.20;;;;;;;;;;6264019;28;20048;-59
2022/01/05 09:23:34;;;;;;;32.88;15.70;;;;;;;;;;6264917;28;20049;-60
2022/01/05 09:26:35;;;;;;;30.00;14.68;;;;;;;;;;6262395;28;21244;-66
2022/01/05 09:29:36;;;;;;;26.77;15.00;;;;;;;;;;6261559;28;20109;-65
2022/01/05 09:32:39;;;;;;;29.40;14.02;;;;;;;;;;6264942;28;20115;-59
2022/01/05 09:35:41;;;;;;;28.48;14.35;;;;;;;;;;6269425;28;20128;-65
2022/01/05 09:41:57;;;;;;;27.50;14.90;;;;;;;;;;6270520;28;20051;-60
2022/01/05 09:44:59;;;;;;;25.45;14.05;;;;;;;;;;6274623;28;20542;-59
2022/01/05 09:48:08;;;;;;;28.30;13.80;;;;;;;;;;6272607;28;20413;-61
2022/01/05 09:51:12;;;;;;;25.80;12.55;;;;;;;;;;6270362;28;20049;-61
2022/01/05 09:54:14;;;;;;;25.85;14.02;;;;;;;;;;6274117;28;20051;-59
2022/01/05 09:57:16;;;;;;;24.95;12.82;;;;;;;;;;6270023;28;20048;-59
2022/01/05 10:00:18;;;;;;;33.47;17.52;;;;;;;;;;6265444;28;20110;-60
2022/01/05 10:03:19;;;;;;;25.48;14.95;;;;;;;;;;6271120;28;20118;-62
2022/01/05 10:06:19;;;;;;;23.33;12.15;;;;;;;;;;6270924;28;20044;-63
2022/01/05 10:09:20;;;;;;;24.30;12.93;;;;;;;;;;6268721;28;20049;-65
2022/01/05 10:12:22;;;;;;;25.63;13.37;;;;;;;;;;6265271;28;20179;-64
2022/01/05 10:15:25;;;;;;;26.83;12.13;;;;;;;;;;6267627;28;20610;-64
2022/01/05 10:18:39;;;;;;;21.90;11.95;;;;;;;;;;6267817;28;20236;-60
2022/01/05 10:21:39;;;;;;;25.95;11.50;;;;;;;;;;6265343;28;20055;-62
2022/01/05 10:24:47;;;;;;;23.90;11.65;;;;;;;;;;6270467;28;20495;-62
2022/01/05 10:28:02;;;;;;;26.63;12.27;;;;;;;;;;6266616;28;20411;-59
2022/01/05 10:31:13;;;;;;;20.63;10.25;;;;;;;;;;6263435;28;20138;-60
2022/01/05 10:34:18;;;;;;;19.30;9.60;;;;;;;;;;6265520;28;20052;-59
2022/01/05 10:37:24;;;;;;;18.23;9.18;;;;;;;;;;6265996;28;20126;-60
2022/01/05 10:40:25;;;;;;;16.55;8.98;;;;;;;;;;6264724;28;20049;-59
2022/01/05 10:43:25;;;;;;;20.40;10.77;;;;;;;;;;6264210;28;20094;-60
2022/01/05 10:46:35;;;;;;;17.38;9.27;;;;;;;;;;6273549;28;20049;-60
2022/01/05 10:49:38;;;;;;;16.42;8.43;;;;;;;;;;6273743;28;20128;-60
2022/01/05 10:52:41;;;;;;;16.35;8.27;;;;;;;;;;6268237;28;20053;-61
2022/01/05 10:55:44;;;;;;;14.75;8.00;;;;;;;;;;6275052;28;20041;-60
2022/01/05 10:58:46;;;;;;;15.93;7.80;;;;;;;;;;6273587;28;20087;-60
2022/01/05 11:01:48;;;;;;;14.30;7.93;;;;;;;;;;6263590;28;20087;-60
2022/01/05 11:04:53;;;;;;;16.37;7.97;;;;;;;;;;6263418;28;20049;-60
2022/01/05 11:08:08;;;;;;;15.93;8.30;;;;;;;;;;6266018;28;20464;-61
2022/01/05 11:11:35;;;;;;;17.55;9.02;;;;;;;;;;6264020;28;20057;-60
2022/01/05 11:14:36;;;;;;;16.55;8.43;;;;;;;;;;6271561;28;20056;-61
2022/01/05 11:17:36;;;;;;;16.65;9.02;;;;;;;;;;6268518;28;20048;-60
2022/01/05 11:20:55;;;;;;;18.90;9.60;;;;;;;;;;6262650;28;20052;-60
2022/01/05 11:23:55;;;;;;;18.45;9.88;;;;;;;;;;6260914;28;20059;-59
2022/01/05 11:26:57;;;;;;;20.05;11.05;;;;;;;;;;6268628;28;20135;-60
2022/01/05 11:29:58;;;;;;;16.67;10.27;;;;;;;;;;6266408;28;20040;-58
2022/01/05 11:32:59;;;;;;;17.70;9.47;;;;;;;;;;6263219;28;20052;-59
2022/01/05 11:36:01;;;;;;;16.85;9.23;;;;;;;;;;6264218;28;20305;-59
2022/01/05 11:39:02;;;;;;;18.67;9.37;;;;;;;;;;6268029;28;20827;-59
2022/01/05 11:42:10;;;;;;;18.33;9.82;;;;;;;;;;6265504;28;20459;-59
2022/01/05 11:45:11;;;;;;;18.92;9.05;;;;;;;;;;6266789;28;20775;-60
2022/01/05 11:48:29;;;;;;;20.52;10.07;;;;;;;;;;6262837;28;20052;-61
2022/01/05 11:51:48;;;;;;;20.58;9.60;;;;;;;;;;6260566;28;20139;-63
2022/01/05 11:55:05;;;;;;;19.42;9.18;;;;;;;;;;6267925;28;20048;-63
2022/01/05 11:58:16;;;;;;;19.48;10.13;;;;;;;;;;6263882;28;20440;-60
2022/01/05 12:01:17;;;;;;;21.07;10.17;;;;;;;;;;6247162;28;20509;-59
2022/01/05 12:04:20;;;;;;;17.80;9.20;;;;;;;;;;6263625;28;20049;-60
2022/01/05 12:07:44;;;;;;;19.58;9.98;;;;;;;;;;6262711;28;20041;-58
2022/01/05 12:10:52;;;;;;;22.38;10.00;;;;;;;;;;6244958;28;20090;-60
2022/01/05 12:13:53;;;;;;;28.98;14.40;;;;;;;;;;6260697;28;20059;-62
2022/01/05 12:17:02;;;;;;;21.20;10.85;;;;;;;;;;6266964;28;20052;-63
2022/01/05 12:20:05;;;;;;;20.30;10.27;;;;;;;;;;6265218;28;20510;-59
2022/01/05 12:23:27;;;;;;;17.30;9.25;;;;;;;;;;6258408;28;20052;-60
2022/01/05 12:26:27;;;;;;;20.05;9.50;;;;;;;;;;6264514;28;20048;-60
2022/01/05 12:29:30;;;;;;;16.80;8.63;;;;;;;;;;6262803;28;20087;-60
2022/01/05 12:32:32;;;;;;;20.88;9.65;;;;;;;;;;6262408;28;20059;-60
2022/01/05 12:35:43;;;;;;;;;;;;;;;;;;6262890;28;20508;-60
2022/01/05 12:38:52;;;;;;;17.98;9.00;;;;;;;;;;6269744;28;20294;-60
2022/01/05 12:41:52;;;;;;;17.10;9.48;;;;;;;;;;6260804;28;20072;-61
2022/01/05 12:44:53;;;;;;;18.95;9.63;;;;;;;;;;6262951;28;20454;-60
2022/01/05 12:47:54;;;;;;;19.90;9.05;;;;;;;;;;6264773;28;20052;-60
2022/01/05 12:50:54;;;;;;;24.75;9.05;;;;;;;;;;6264545;28;20056;-61
2022/01/05 12:54:01;;;;;;;18.95;9.38;;;;;;;;;;6269284;28;20044;-65
2022/01/05 12:57:04;;;;;;;19.10;9.90;;;;;;;;;;6266518;28;20053;-60
2022/01/05 13:00:07;;;;;;;14.90;8.70;;;;;;;;;;6267077;28;20079;-60
2022/01/05 13:03:34;;;;;;;16.85;7.70;;;;;;;;;;6265354;28;20060;-60
2022/01/05 13:06:36;;;;;;;16.00;8.60;;;;;;;;;;6262454;28;20076;-60
2022/01/05 13:09:44;;;;;;;15.95;8.15;;;;;;;;;;6263639;28;20101;-60
2022/01/05 13:12:47;;;;;;;14.75;7.90;;;;;;;;;;6261092;28;20136;-60
2022/01/05 13:15:47;;;;;;;16.50;8.50;;;;;;;;;;6265523;28;20048;-60
2022/01/05 13:18:51;;;;;;;18.20;9.65;;;;;;;;;;6271963;28;20045;-61
2022/01/05 13:21:52;;;;;;;15.27;7.43;;;;;;;;;;6268730;28;20053;-62
2022/01/05 13:24:55;;;;;;;13.48;7.82;;;;;;;;;;6276849;28;20059;-60
2022/01/05 13:28:01;;;;;;;11.98;6.75;;;;;;;;;;6267671;28;20219;-60
2022/01/05 13:31:08;;;;;;;14.90;7.90;;;;;;;;;;6267626;28;20085;-61
2022/01/05 13:34:08;;;;;;;12.45;7.03;;;;;;;;;;6272787;28;20138;-61
2022/01/05 13:37:09;;;;;;;14.20;7.05;;;;;;;;;;6270370;28;20535;-60
2022/01/05 13:40:12;;;;;;;14.18;6.88;;;;;;;;;;6268878;28;20056;-60
2022/01/05 13:43:14;;;;;;;17.48;8.52;;;;;;;;;;6265848;28;20059;-60
2022/01/05 13:46:15;;;;;;;12.48;7.68;;;;;;;;;;6273180;28;20060;-62
2022/01/05 13:49:16;;;;;;;12.65;6.88;;;;;;;;;;6274909;28;20049;-60
2022/01/05 13:52:16;;;;;;;12.25;6.65;;;;;;;;;;6266213;28;20415;-61
2022/01/05 13:55:29;;;;;;;15.70;9.50;;;;;;;;;;6267682;28;20502;-61
2022/01/05 13:58:32;;;;;;;14.13;7.43;;;;;;;;;;6265706;28;20080;-59
2022/01/05 14:01:33;;;;;;;16.00;8.63;;;;;;;;;;6264798;28;20040;-60
2022/01/05 14:04:48;;;;;;;11.77;7.05;;;;;;;;;;6271277;28;20168;-59
2022/01/05 14:08:04;;;;;;;14.63;6.95;;;;;;;;;;6268925;28;20119;-60
2022/01/05 14:11:06;;;;;;;12.88;7.28;;;;;;;;;;6264309;28;20049;-63
2022/01/05 14:14:10;;;;;;;11.70;6.85;;;;;;;;;;6271557;28;20076;-60
2022/01/05 14:17:14;;;;;;;13.23;6.68;;;;;;;;;;6270649;28;20078;-60
2022/01/05 14:20:20;;;;;;;13.60;7.20;;;;;;;;;;6263926;28;20045;-60
2022/01/05 14:23:21;;;;;;;12.20;6.63;;;;;;;;;;6269575;28;20059;-62
2022/01/05 14:26:30;;;;;;;11.73;6.97;;;;;;;;;;6265991;28;20164;-61
2022/01/05 14:29:31;;;;;;;12.55;6.53;;;;;;;;;;6269902;28;20878;-62
2022/01/05 14:32:33;;;;;;;13.98;7.43;;;;;;;;;;6269528;28;20139;-62
2022/01/05 14:35:34;;;;;;;15.88;8.70;;;;;;;;;;6267822;28;20143;-64
2022/01/05 14:38:50;;;;;;;13.20;7.85;;;;;;;;;;6267089;28;20630;-63
2022/01/05 14:42:00;;;;;;;15.05;8.18;;;;;;;;;;6264848;28;20064;-61
2022/01/05 14:45:00;;;;;;;14.05;7.90;;;;;;;;;;6269839;28;20088;-64
2022/01/05 14:48:03;;;;;;;13.95;7.20;;;;;;;;;;6270084;28;20060;-63
2022/01/05 14:51:04;;;;;;;14.10;8.25;;;;;;;;;;6268745;28;20080;-63
2022/01/05 14:54:04;;;;;;;17.83;9.05;;;;;;;;;;6269148;28;20056;-61
2022/01/05 14:57:08;;;;;;;19.23;9.38;;;;;;;;;;6274429;28;20071;-64
2022/01/05 15:00:09;;;;;;;18.05;9.60;;;;;;;;;;6272334;28;20057;-61
2022/01/05 15:03:10;;;;;;;22.77;11.20;;;;;;;;;;6262852;28;20060;-61
2022/01/05 15:06:10;;;;;;;22.20;10.65;;;;;;;;;;6266336;28;20167;-61
2022/01/05 15:09:12;;;;;;;25.95;12.15;;;;;;;;;;6264964;28;20055;-64
2022/01/05 15:12:14;;;;;;;17.60;9.80;;;;;;;;;;6261517;28;20426;-61
2022/01/05 15:15:15;;;;;;;22.10;10.52;;;;;;;;;;6266547;28;20133;-64
2022/01/05 15:18:16;;;;;;;16.85;8.32;;;;;;;;;;6266017;28;20044;-61
2022/01/05 15:21:17;;;;;;;22.63;10.25;;;;;;;;;;6262669;28;20047;-63
2022/01/05 15:24:17;;;;;;;18.63;10.30;;;;;;;;;;6265136;28;20411;-60
2022/01/05 15:27:18;;;;;;;12.82;7.65;;;;;;;;;;6265801;28;20599;-60
2022/01/05 15:30:21;;;;;;;13.52;7.45;;;;;;;;;;6267582;28;20049;-60
2022/01/05 15:33:21;;;;;;;12.82;6.95;;;;;;;;;;6266350;28;20052;-61
2022/01/05 15:36:23;;;;;;;14.60;7.78;;;;;;;;;;6262698;28;20198;-62
2022/01/05 15:39:25;;;;;;;14.57;7.80;;;;;;;;;;6267380;28;20136;-66
2022/01/05 15:42:26;;;;;;;12.37;7.30;;;;;;;;;;6264648;28;20048;-61
2022/01/05 15:45:27;;;;;;;13.30;7.38;;;;;;;;;;6271130;28;20044;-63
2022/01/05 15:48:28;;;;;;;16.02;7.70;;;;;;;;;;6268114;28;20044;-60
2022/01/05 15:51:28;;;;;;;14.10;7.40;;;;;;;;;;6264271;28;20140;-59
2022/01/05 15:54:29;;;;;;;15.15;7.20;;;;;;;;;;6267420;28;20052;-65
2022/01/05 16:03:54;;;;;;;17.63;8.95;;;;;;;;;;6264398;28;20102;-61
2022/01/05 16:06:54;;;;;;;18.23;10.02;;;;;;;;;;6272112;28;20048;-64
2022/01/05 16:09:55;;;;;;;17.27;8.50;;;;;;;;;;6273319;28;20051;-59
2022/01/05 16:12:55;;;;;;;14.02;6.50;;;;;;;;;;6266064;28;20051;-61
2022/01/05 16:15:56;;;;;;;16.20;6.97;;;;;;;;;;6262985;28;20640;-59
2022/01/05 16:18:57;;;;;;;21.00;8.25;;;;;;;;;;6274072;28;20942;-59
2022/01/05 16:21:58;;;;;;;15.98;8.43;;;;;;;;;;6262416;28;20250;-59
2022/01/05 16:24:58;;;;;;;11.63;6.70;;;;;;;;;;6263656;28;20680;-61
2022/01/05 16:27:59;;;;;;;14.30;7.03;;;;;;;;;;6265091;28;20056;-60
2022/01/05 16:31:00;;;;;;;12.02;6.20;;;;;;;;;;6270462;28;20148;-59
2022/01/05 16:34:01;;;;;;;14.57;7.38;;;;;;;;;;6270382;28;20253;-60
2022/01/05 16:37:02;;;;;;;16.30;8.85;;;;;;;;;;6269535;28;20119;-60
2022/01/05 16:40:06;;;;;;;16.13;8.68;;;;;;;;;;6269494;28;20128;-59
2022/01/05 16:43:07;;;;;;;17.90;8.63;;;;;;;;;;6269035;28;20052;-61
2022/01/05 16:46:08;;;;;;;17.27;8.57;;;;;;;;;;6267930;28;20069;-61
2022/01/05 16:49:10;;;;;;;15.98;8.32;;;;;;;;;;6269272;28;20649;-64
2022/01/05 16:52:11;;;;;;;17.55;8.10;;;;;;;;;;6268301;28;20052;-60
2022/01/05 16:55:16;;;;;;;16.30;7.88;;;;;;;;;;6268252;28;20154;-61
2022/01/05 17:01:36;;;;;;;16.83;8.48;;;;;;;;;;6266943;28;20045;-62
2022/01/05 17:04:40;;;;;;;15.80;8.88;;;;;;;;;;6266144;28;20106;-62
2022/01/05 17:07:42;;;;;;;16.00;8.40;;;;;;;;;;6262761;28;20056;-62
2022/01/05 17:10:42;;;;;;;17.27;8.90;;;;;;;;;;6265553;28;20073;-64
2022/01/05 17:13:44;;;;;;;17.00;8.90;;;;;;;;;;6269572;28;20044;-63
2022/01/05 17:16:46;;;;;;;17.05;9.20;;;;;;;;;;6265848;28;20144;-62
2022/01/05 17:19:47;;;;;;;16.50;8.90;;;;;;;;;;6271039;28;20053;-68
2022/01/05 17:22:48;;;;;;;17.73;8.55;;;;;;;;;;6266171;28;20048;-67
2022/01/05 17:25:49;;;;;;;19.00;8.10;;;;;;;;;;6265434;28;20053;-59
2022/01/05 17:28:50;;;;;;;17.85;7.75;;;;;;;;;;6271041;28;20072;-62
2022/01/05 17:31:50;;;;;;;20.73;8.30;;;;;;;;;;6266650;28;20523;-61
2022/01/05 17:34:51;;;;;;;14.90;8.25;;;;;;;;;;6265697;28;20457;-60
2022/01/05 17:37:52;;;;;;;18.55;8.25;;;;;;;;;;6264111;28;20151;-63
2022/01/05 17:40:52;;;;;;;27.25;9.18;;;;;;;;;;6262785;28;20060;-63
2022/01/05 17:43:53;;;;;;;20.95;10.13;;;;;;;;;;6267495;28;20052;-60
2022/01/05 17:46:54;;;;;;;21.20;10.13;;;;;;;;;;6267579;28;20053;-61
2022/01/05 17:49:54;;;;;;;21.25;10.07;;;;;;;;;;6268086;28;20528;-61
2022/01/05 17:52:56;;;;;;;17.50;9.20;;;;;;;;;;6268448;28;20079;-63
2022/01/05 17:55:58;;;;;;;20.08;8.43;;;;;;;;;;6272752;28;20045;-61
2022/01/05 17:58:58;;;;;;;16.60;7.97;;;;;;;;;;6268321;28;20393;-62
2022/01/05 18:02:02;;;;;;;18.25;8.30;;;;;;;;;;6269272;28;20040;-61
2022/01/05 18:05:03;;;;;;;21.33;9.82;;;;;;;;;;6271246;28;20167;-59